Tiempo atmosférico en la estación meteorológica de Palma, Puerto, Illes Balears (3 m.)



Fecha
DESCASC
Temp. máxima en grados centígrados (hora)
DESCASC
Temp. mínima en grados centígrados (hora)
DESCASC
Temp. media en grados centígrados
DESCASC
Racha de viento máxima en m/sg (hora)
DESCASC
Velocidad máxima media en intervalos de 10 minutos(hora)
DESCASC
Precipitaciones diarias en mm
DESCASC
Precipitaciones de 00:00 a 06:00 en mm
DESCASC
Precipitaciones de 06:00 a 12:00 en mm
DESCASC
Precipitaciones de 12:00 a 18:00 en mm
DESCASC
Precipitaciones de 18:00 a 24:00 en mm
DESCASC
16-01-2020 17.4 (12:40) 7.5 (03:40) 12.4 5 (14:20) 2.5 (14:50) 0 0 0 0 0
15-01-2020 16.2 (13:20) 8.9 (23:59) 12.6 13.89 (02:20) 4.44 (01:30) 0 0 0 0 0
14-01-2020 16 (14:10) 12.4 (07:50) 14.2 7.78 (23:10) 4.72 (23:10) 0 0 0 0 0
13-01-2020 15.3 (14:20) 5.2 (08:00) 10.3 7.22 (23:30) 2.78 (14:10) 0 0 0 0 0
12-01-2020 15.4 (15:40) 5.8 (00:00) 10.6 6.11 (12:30) 3.33 (12:30) 0 0 0 0 0
11-01-2020 15.2 (13:20) 7.5 (00:00) 11.3 8.89 (13:00) 5 (11:40) 0 0 0 0 0
10-01-2020 13.9 (13:30) 8.4 (00:00) 11.1 9.44 (18:30) 5.28 (18:30) 3.8 0 0 3.7 0.1
09-01-2020 17.6 (13:30) 7.7 (00:00) 12.7 3.61 (16:30) 1.94 (16:10) 0 0 0 0 0
08-01-2020 -- (--) -- (--) -- -- (--) -- (--) -- -- -- 0 0
07-01-2020 -- (--) -- (--) -- -- (--) -- (--) -- 0 0 -- --
06-01-2020 15 (14:50) 7.4 (00:00) 11.2 4.44 (19:20) 2.5 (19:20) 0 0 0 0 0
05-01-2020 17.9 (15:50) 6.9 (00:00) 12.4 5 (18:40) 3.06 (18:30) 0 0 0 0 0
04-01-2020 18 (14:10) 8.8 (00:00) 13.4 5.28 (16:20) 2.78 (08:50) 0 0 0 0 0
03-01-2020 15.5 (13:10) 11.6 (00:00) 13.6 5 (12:00) 2.5 (21:30) 0 0 0 0 0
02-01-2020 17.1 (14:10) 9.7 (00:00) 13.4 4.72 (14:40) 2.5 (14:40) 0 0 0 0 0
01-01-2020 17.1 (12:50) 8.5 (00:00) 12.8 4.72 (16:10) 2.78 (16:10) 0 0 0 0 0
31-12-2019 17.3 (12:50) 7.8 (00:00) 12.5 4.72 (16:00) 2.5 (16:10) 0 0 0 0 0
30-12-2019 16.7 (12:40) 8.7 (00:00) 12.7 5 (16:00) 2.78 (15:20) 0 0 0 0 0
29-12-2019 16 (14:40) 9 (00:00) 12.5 4.72 (13:30) 2.22 (19:20) 0 0 0 0 0
28-12-2019 17.1 (15:20) 7.9 (00:00) 12.5 3.61 (16:40) 1.94 (16:40) 0 0 0 0 0
27-12-2019 19.5 (14:10) 9 (00:00) 14.3 6.67 (12:30) 2.78 (12:20) 0 0 0 0 0
26-12-2019 20.8 (12:40) 9.2 (00:00) 15 10.56 (15:20) 5.56 (14:40) 0 0 0 0 0
25-12-2019 18.8 (16:00) 9.2 (00:00) 14 5 (14:10) 3.06 (14:00) 0 0 0 0 0
24-12-2019 20.4 (15:20) 10 (00:00) 15.2 6.11 (19:30) 1.94 (13:30) 0 0 0 0 0
23-12-2019 19.7 (14:30) 12.9 (00:00) 16.3 12.5 (01:20) 4.72 (11:20) 0 0 0 0 0
22-12-2019 19.9 (13:10) 16.8 (00:00) 18.3 17.5 (00:10) 6.11 (00:20) 0 0 0 0 0
21-12-2019 21.2 (11:40) 16.9 (00:00) 19.1 17.5 (23:40) 5 (23:59) 0.8 0.8 0 0 0
20-12-2019 18.4 (13:30) 16.1 (00:00) 17.3 12.22 (12:50) 5 (01:40) 1.6 0 0.5 0 1.1

Gráficas

Temp. máximas Temp. mínimas Temp. medias Precipitaciones Rachas de viento máximas Velocidades máximas media en intervalos de 10 minutos

Datos horarios

Fecha y hora oficial Temperatura (ºC) Velocidad del viento (km/h) Dirección del viento Racha (km/h) Dirección de racha Precipitación (mm) Presión (hPa) Tendencia (hPa) Humedad (%)
2020-01-18 23:00:00 10.5 0 Calma 4 Nordeste 0 -- -- 87
2020-01-18 22:00:00 10.6 3 Norte 6 Norte 0 -- -- 86
2020-01-18 21:00:00 10.8 2 Norte 8 Norte 0 -- -- 83
2020-01-18 20:00:00 11.1 5 Norte 9 Noroeste 0 -- -- 80
2020-01-18 19:00:00 12.1 2 Noroeste 10 Sudoeste 0 -- -- 78
2020-01-18 18:00:00 13.4 5 Sur 13 Sudoeste 0 -- -- 70
2020-01-18 17:00:00 14.1 6 Sur 13 Sudoeste 0 -- -- 63
2020-01-18 16:00:00 14.9 6 Sur 13 Sudeste 0 -- -- 56
2020-01-18 15:00:00 15.2 6 Sudeste 10 Sudeste 0 -- -- 56
2020-01-18 14:00:00 14.7 5 Sudeste 9 Sudeste 0 -- -- 62
2020-01-18 13:00:00 13.9 2 Sur 9 Sur 0 -- -- 67
2020-01-18 12:00:00 13.7 0 Calma 6 Sudeste 0 -- -- 67
2020-01-18 11:00:00 12.7 0 Calma 6 Noroeste 0 -- -- 71
2020-01-18 10:00:00 10.3 3 Norte 8 Nordeste 0 -- -- 76
2020-01-18 09:00:00 9.1 3 Nordeste 7 Noroeste 0 -- -- 80
2020-01-18 08:00:00 8.5 4 Norte 9 Nordeste 0 -- -- 82
2020-01-18 07:00:00 8.8 4 Norte 10 Este 0 -- -- 81
2020-01-18 06:00:00 9.1 3 Nordeste 9 Noroeste 0 -- -- 80
2020-01-18 05:00:00 9.4 2 Norte 9 Noroeste 0 -- -- 73
2020-01-18 04:00:00 9.7 3 Norte 8 Norte 0 -- -- 71
2020-01-18 03:00:00 10.7 0 Calma 13 Este 0 -- -- 67
2020-01-18 02:00:00 12 5 Este 13 Este 0 -- -- 63
2020-01-18 01:00:00 14.1 2 Norte 24 Norte 0 -- -- 49
2020-01-18 00:00:00 14.3 11 Norte 22 Norte 0 -- -- 54
2020-01-17 23:00:00 11.8 4 Noroeste 10 Norte 0 -- -- 62
2020-01-17 22:00:00 11.3 0 Calma 6 Noroeste 0 -- -- 67
2020-01-17 21:00:00 12 0 Calma 7 Noroeste 0 -- -- 64
2020-01-17 20:00:00 12.7 4 Norte 7 Norte 0 -- -- 62
2020-01-17 19:00:00 13.7 0 Calma 10 Sudoeste 0 -- -- 60
2020-01-17 18:00:00 15 0 Calma 19 Oeste 0 -- -- 55
2020-01-17 17:00:00 17 4 Noroeste 19 Noroeste 0 -- -- 41
2020-01-17 16:00:00 17 3 Sudoeste 23 Sudoeste 0 -- -- 57
2020-01-17 15:00:00 17.5 8 Oeste 28 Oeste 0 -- -- 50
2020-01-17 14:00:00 18.3 8 Oeste 29 Oeste 0 -- -- 46
2020-01-17 13:00:00 18.1 7 Oeste 35 Sudoeste 0 -- -- 44
2020-01-17 12:00:00 17.4 12 Sudoeste 30 Sudoeste 0 -- -- 51
2020-01-17 11:00:00 16.8 6 Sudoeste 17 Sur 0 -- -- 61
2020-01-17 10:00:00 14.7 3 Sudoeste 12 Sudoeste 0 -- -- 84
2020-01-17 09:00:00 14 3 Oeste 12 Oeste 0 -- -- 87
2020-01-17 08:00:00 13.1 0 Calma 14 Sudoeste 0 -- -- 86
2020-01-17 07:00:00 12.7 3 Sudoeste 9 Sudoeste 0 -- -- 88
2020-01-17 06:00:00 11.3 0 Calma 6 Oeste 0 -- -- 91
2020-01-17 05:00:00 10.5 0 Calma 6 Norte 0 -- -- 91
2020-01-17 04:00:00 10.5 0 Calma 5 Nordeste 0 -- -- 90
2020-01-17 03:00:00 10.7 0 Calma 4 Noroeste 0 -- -- 90
2020-01-17 02:00:00 11.3 0 Calma 4 Nordeste 0 -- -- 90
2020-01-17 01:00:00 11.8 2 Norte 6 Noroeste 0 -- -- 90
2020-01-17 00:00:00 11.9 0 Calma 4 Nordeste 0 -- -- 89
2020-01-16 23:00:00 12 0 Calma 4 Norte 0 -- -- 88
2020-01-16 22:00:00 12.3 3 Nordeste 8 Noroeste 0 -- -- 87
2020-01-16 21:00:00 12.2 3 Nordeste 6 Nordeste 0 -- -- 86
2020-01-16 20:00:00 12.6 2 Nordeste 5 Sudoeste 0 -- -- 85
2020-01-16 19:00:00 14.1 0 Calma 6 Sudoeste 0 -- -- 80
2020-01-16 18:00:00 14.4 4 Sur 9 Sur 0 -- -- 80
2020-01-16 17:00:00 14.8 5 Sur 14 Sudeste 0 -- -- 77
2020-01-16 16:00:00 15.7 8 Sur 14 Sur 0 -- -- 72
2020-01-16 15:00:00 16.1 8 Sur 18 Sudeste 0 -- -- 70
2020-01-16 14:00:00 16.4 6 Sudeste 11 Sudeste 0 -- -- 70
2020-01-16 13:00:00 16.6 6 Sudeste 9 Sudeste 0 -- -- 67
2020-01-16 12:00:00 15.5 3 Nordeste 8 Nordeste 0 -- -- 68
2020-01-16 11:00:00 14 6 Nordeste 8 Este 0 -- -- 68
2020-01-16 10:00:00 12.1 3 Nordeste 7 Norte 0 -- -- 74
2020-01-16 09:00:00 9.2 3 Nordeste 7 Norte 0 -- -- 80
2020-01-16 08:00:00 8.8 3 Norte 8 Noroeste 0 -- -- 80
2020-01-16 07:00:00 8 4 Norte 6 Norte 0 -- -- 81
2020-01-16 06:00:00 7.9 4 Norte 7 Noroeste 0 -- -- 78
2020-01-16 05:00:00 7.8 3 Norte 6 Nordeste 0 -- -- 80
2020-01-16 04:00:00 7.7 5 Nordeste 6 Nordeste 0 -- -- 82
2020-01-16 03:00:00 8 3 Norte 6 Norte 0 -- -- 82
2020-01-16 02:00:00 8.3 2 Norte 6 Norte 0 -- -- 82
2020-01-16 01:00:00 9 2 Norte 8 Nordeste 0 -- -- 81
2020-01-16 00:00:00 8.9 4 Norte 8 Norte 0 -- -- 85
2020-01-15 23:00:00 9.5 0 Calma 5 Noroeste 0 -- -- 86
2020-01-15 22:00:00 10.1 0 Calma 6 Norte 0 -- -- 85
2020-01-15 21:00:00 10.6 0 Calma 6 Noroeste 0 -- -- 83
2020-01-15 20:00:00 10.8 0 Calma 4 Norte 0 -- -- 80
2020-01-15 19:00:00 11.6 0 Calma 11 Oeste 0 -- -- 75
2020-01-15 18:00:00 13 3 Oeste 14 Sudoeste 0 -- -- 67
2020-01-15 17:00:00 13.8 6 Sudoeste 14 Sudoeste 0 -- -- 62
2020-01-15 16:00:00 13.9 7 Sudoeste 19 Sudoeste 0 -- -- 57
2020-01-15 15:00:00 14.2 8 Sudoeste 22 Sudoeste 0 -- -- 57
2020-01-15 14:00:00 15.7 8 Sudoeste 24 Sur 0 -- -- 57
2020-01-15 13:00:00 15.6 7 Sudoeste 23 Sudoeste 0 -- -- 53
2020-01-15 12:00:00 15.1 6 Sudoeste 18 Sudoeste 0 -- -- 54
2020-01-15 11:00:00 14.8 6 Sudoeste 14 Sudoeste 0 -- -- 62
2020-01-15 10:00:00 12.5 0 Calma 6 Noroeste 0 -- -- 78
2020-01-15 09:00:00 10.8 2 Nordeste 5 Nordeste 0 -- -- 86
2020-01-15 08:00:00 10.5 3 Norte 6 Noroeste 0 -- -- 83
2020-01-15 07:00:00 10.7 3 Norte 8 Nordeste 0 -- -- 80
2020-01-15 06:00:00 11.5 4 Nordeste 17 Sudoeste 0 -- -- 75
2020-01-15 05:00:00 12.7 3 Sur 18 Sudoeste 0 -- -- 70
2020-01-15 04:00:00 13.5 6 Sudoeste 22 Sur 0 -- -- 65
2020-01-15 03:00:00 14 9 Sudoeste 50 Sudoeste 0 -- -- 67
2020-01-15 02:00:00 14.4 14 Sur 29 Sur 0 -- -- 70
2020-01-15 01:00:00 14.3 13 Sur 23 Sur 0 -- -- 68
2020-01-15 00:00:00 14.1 11 Sur 28 Sur 0 -- -- 62
2020-01-14 23:00:00 14.1 12 Sur 24 Sur 0 -- -- 61
2020-01-14 22:00:00 14.1 12 Sur 24 Sur 0 -- -- 63
2020-01-14 21:00:00 14.1 10 Sur 23 Sur 0 -- -- 64
2020-01-14 20:00:00 14.1 11 Sur 24 Sur 0 -- -- 65
2020-01-14 19:00:00 14 9 Sur 20 Sur 0 -- -- 64
2020-01-14 18:00:00 14.2 10 Sur 22 Sudoeste 0 -- -- 62
2020-01-14 17:00:00 14.5 9 Sur 19 Sudoeste 0 -- -- 60
2020-01-14 16:00:00 15.3 10 Sur 22 Sur 0 -- -- 54
2020-01-14 15:00:00 15.7 11 Sur 27 Sur 0 -- -- 54
2020-01-14 14:00:00 15.6 15 Sur 26 Sur 0 -- -- 57
2020-01-14 13:00:00 14.9 14 Sur 26 Sur 0 -- -- 59
2020-01-14 12:00:00 14.7 13 Sur 25 Sur 0 -- -- 59
2020-01-14 11:00:00 14.6 13 Sudoeste 26 Sudoeste 0 -- -- 60
2020-01-14 10:00:00 14.2 12 Sudoeste 22 Sudoeste 0 -- -- 62
2020-01-14 09:00:00 13.5 8 Sudoeste 20 Sudoeste 0 -- -- 67
2020-01-14 08:00:00 12.4 0 Calma 8 Sudoeste 0 -- -- 72
2020-01-14 07:00:00 12.9 3 Oeste 20 Sudoeste 0 -- -- 69
2020-01-14 06:00:00 13.6 10 Sudoeste 24 Sudoeste 0 -- -- 67
2020-01-14 05:00:00 13.4 7 Sudoeste 22 Sudoeste 0 -- -- 68
2020-01-14 04:00:00 13 3 Oeste 22 Sudoeste 0 -- -- 67
2020-01-14 03:00:00 13.5 10 Sudoeste 22 Sudoeste 0 -- -- 65
2020-01-14 02:00:00 13.6 11 Sudoeste 24 Sudoeste 0 -- -- 63
2020-01-14 01:00:00 13.6 9 Sudoeste 24 Sudoeste 0 -- -- 65
2020-01-14 00:00:00 13.4 9 Sudoeste 26 Sur 0 -- -- 65
2020-01-13 23:00:00 13 4 Sudoeste 21 Sudoeste 0 -- -- 67
2020-01-13 22:00:00 11 0 Calma 9 Sudoeste 0 -- -- 80
2020-01-13 21:00:00 10.3 3 Norte 7 Noroeste 0 -- -- 80
2020-01-13 20:00:00 11.1 0 Calma 5 Noroeste 0 -- -- 75
2020-01-13 19:00:00 11.8 0 Calma 13 Sudoeste 0 -- -- 67
2020-01-13 18:00:00 13.2 6 Sudoeste 16 Sudoeste 0 -- -- 59
2020-01-13 17:00:00 13.6 8 Sur 21 Sur 0 -- -- 62
2020-01-13 16:00:00 14.5 8 Sudoeste 20 Sudoeste 0 -- -- 57
2020-01-13 15:00:00 14.4 7 Sudoeste 21 Sudoeste 0 -- -- 58
2020-01-13 14:00:00 15 9 Sudoeste 19 Sudoeste 0 -- -- 54
2020-01-13 13:00:00 14.7 8 Sudoeste 21 Sudoeste 0 -- -- 56
2020-01-13 12:00:00 14.2 8 Sudoeste 21 Sudoeste 0 -- -- 57
2020-01-13 11:00:00 13.3 0 Calma 6 Sudeste 0 -- -- 72
2020-01-13 10:00:00 8.7 2 Nordeste 7 Nordeste 0 -- -- 81
2020-01-13 09:00:00 6.5 0 Calma 6 Noroeste 0 -- -- 92
2020-01-13 08:00:00 5.4 0 Calma 6 Norte 0 -- -- 92
2020-01-13 07:00:00 5.7 0 Calma 6 Noroeste 0 -- -- 92
2020-01-13 06:00:00 5.7 0 Calma 5 Norte 0 -- -- 92
2020-01-13 05:00:00 6.1 4 Norte 8 Nordeste 0 -- -- 92
2020-01-13 04:00:00 6.1 4 Norte 7 Nordeste 0 -- -- 92
2020-01-13 03:00:00 6.1 0 Calma -- -- 0 -- -- 92
2020-01-13 02:00:00 6.5 0 Calma -- -- 0 -- -- 91
2020-01-13 01:00:00 6.6 0 Calma 5 Noroeste 0 -- -- 90
2020-01-13 00:00:00 6.8 3 Norte 6 Norte 0 -- -- 90
2020-01-12 23:00:00 7.6 0 Calma 3 Norte 0 -- -- 87
2020-01-12 22:00:00 7.7 0 Calma 4 Norte 0 -- -- 84
2020-01-12 21:00:00 8.5 2 Norte 6 Noroeste 0 -- -- 81
2020-01-12 20:00:00 9.5 3 Noroeste 6 Noroeste 0 -- -- 77
2020-01-12 19:00:00 10.5 3 Norte 8 Norte 0 -- -- 72
2020-01-12 18:00:00 11.9 3 Norte 7 Nordeste 0 -- -- 64
2020-01-12 17:00:00 13.9 3 Norte 10 Nordeste 0 -- -- 54
2020-01-12 16:00:00 14.9 4 Norte 11 Norte 0 -- -- 49
2020-01-12 15:00:00 14.9 8 Norte 22 Norte 0 -- -- 50
2020-01-12 14:00:00 14.5 9 Norte 22 Norte 0 -- -- 50
2020-01-12 13:00:00 14.3 10 Norte 22 Norte 0 -- -- 50
2020-01-12 12:00:00 13.7 5 Sudeste 9 Este 0 -- -- 54
2020-01-12 11:00:00 13.3 2 Este 8 Sudeste 0 -- -- 60
2020-01-12 10:00:00 10 0 Calma 6 Noroeste 0 -- -- 73
2020-01-12 09:00:00 6.9 0 Calma 5 Noroeste 0 -- -- 90
2020-01-12 08:00:00 5.9 0 Calma 8 Nordeste 0 -- -- 89
2020-01-12 07:00:00 6.2 3 Norte 6 Norte 0 -- -- 90
2020-01-12 06:00:00 6.1 0 Calma 5 Norte 0 -- -- 89
2020-01-12 05:00:00 6.5 2 Nordeste 6 Noroeste 0 -- -- 88
2020-01-12 04:00:00 6.7 4 Norte 9 Noroeste 0 -- -- 88
2020-01-12 03:00:00 7.2 4 Norte 7 Norte 0 -- -- 86
2020-01-12 02:00:00 7.6 0 Calma 6 Noroeste 0 -- -- 83
2020-01-12 01:00:00 7.6 3 Norte 8 Noroeste 0 -- -- 81
2020-01-12 00:00:00 7.9 0 Calma 7 Nordeste 0 -- -- 80
2020-01-11 23:00:00 7.9 0 Calma 4 Norte 0 -- -- 77
2020-01-11 22:00:00 8.7 0 Calma 4 Oeste 0 -- -- 74
2020-01-11 21:00:00 9 0 Calma 6 Noroeste 0 -- -- 70
2020-01-11 20:00:00 10.2 0 Calma 13 Noroeste 0 -- -- 62
2020-01-11 19:00:00 10.8 6 Noroeste 11 Noroeste 0 -- -- 60
2020-01-11 18:00:00 11.6 5 Norte 21 Nordeste 0 -- -- 57
2020-01-11 17:00:00 12.8 10 Norte 22 Nordeste 0 -- -- 53
2020-01-11 16:00:00 13.4 12 Nordeste 28 Nordeste 0 -- -- 49
2020-01-11 15:00:00 14.1 14 Nordeste 32 Nordeste 0 -- -- 47
2020-01-11 14:00:00 14.5 11 Nordeste 30 Nordeste 0 -- -- 47
2020-01-11 13:00:00 14.1 17 Nordeste 32 Nordeste 0 -- -- 51
2020-01-11 12:00:00 13.9 15 Nordeste 31 Nordeste 0 -- -- 54
2020-01-11 11:00:00 13.4 13 Nordeste 24 Nordeste 0 -- -- 58
2020-01-11 10:00:00 12.3 12 Nordeste 21 Nordeste 0 -- -- 67
2020-01-11 09:00:00 11 6 Noroeste 12 Norte 0 -- -- 73
2020-01-11 08:00:00 11.1 4 Norte 9 Norte 0 -- -- 71
2020-01-11 07:00:00 10.9 3 Norte 15 Norte 0 -- -- 71
2020-01-11 06:00:00 10.6 4 Norte 10 Noroeste 0 -- -- 72
2020-01-11 05:00:00 10.7 4 Norte 17 Nordeste 0 -- -- 72
2020-01-11 04:00:00 10.6 4 Nordeste 10 Nordeste 0 -- -- 72
2020-01-11 03:00:00 10.1 3 Norte 7 Noroeste 0 -- -- 71
2020-01-11 02:00:00 10 2 Noroeste 9 Norte 0 -- -- 68
2020-01-11 01:00:00 10.7 4 Norte 13 Nordeste 0 -- -- 67
2020-01-11 00:00:00 10.8 4 Norte 9 Nordeste 0 -- -- 68
2020-01-10 23:00:00 11.6 4 Norte 24 Nordeste 0 -- -- 68
2020-01-10 22:00:00 12.7 14 Nordeste 32 Nordeste 0 -- -- 64
2020-01-10 21:00:00 12.7 14 Nordeste 32 Este 0.1 -- -- 67
2020-01-10 20:00:00 12.6 13 Nordeste 29 Norte 0 -- -- 66
2020-01-10 19:00:00 12.6 14 Nordeste 34 Nordeste 0 -- -- 70
2020-01-10 18:00:00 12 11 Norte 22 Norte 0 -- -- 79
2020-01-10 17:00:00 12 10 Nordeste 22 Norte 1.2 -- -- 87
2020-01-10 16:00:00 11.7 6 Norte 27 Nordeste 1.7 -- -- 88
2020-01-10 15:00:00 11.9 14 Nordeste 31 Nordeste 0.8 -- -- 83
2020-01-10 14:00:00 13.5 18 Nordeste 30 Nordeste 0 -- -- 73
2020-01-10 13:00:00 13.2 4 Nordeste 9 Nordeste 0 -- -- 73
2020-01-10 12:00:00 12.8 0 Calma 9 Este 0 -- -- 73
2020-01-10 11:00:00 13.1 4 Nordeste 8 Norte 0 -- -- 72
2020-01-10 10:00:00 10.8 3 Este 7 Este 0 -- -- 83
2020-01-10 09:00:00 9.8 4 Norte 10 Nordeste 0 -- -- 90
2020-01-10 08:00:00 9.1 5 Norte 9 Nordeste 0 -- -- 90
2020-01-10 07:00:00 9.5 4 Nordeste 10 Norte 0 -- -- 87
2020-01-10 06:00:00 9.1 6 Norte 13 Norte 0 -- -- 90
2020-01-10 05:00:00 9.1 0 Calma 8 Noroeste 0 -- -- 90
2020-01-10 04:00:00 9.6 3 Noroeste 9 Noroeste 0 -- -- 90
2020-01-10 03:00:00 9.8 3 Norte 8 Noroeste 0 -- -- 86
2020-01-10 02:00:00 11.5 9 Noroeste 16 Noroeste 0 -- -- 77
2020-01-10 01:00:00 10.7 8 Noroeste 15 Noroeste 0 -- -- 80
2020-01-10 00:00:00 9.8 5 Nordeste 9 Nordeste 0 -- -- 83
2020-01-09 23:00:00 9.4 3 Norte 6 Norte 0 -- -- 83
2020-01-09 22:00:00 9.7 5 Norte 7 Nordeste 0 -- -- 81
2020-01-09 21:00:00 10.2 0 Calma 5 Norte 0 -- -- 80
2020-01-09 20:00:00 10.9 0 Calma 6 Noroeste 0 -- -- 77
2020-01-09 19:00:00 12.4 3 Norte 6 Norte 0 -- -- 70
2020-01-09 18:00:00 14.2 2 Oeste 9 Oeste 0 -- -- 60
2020-01-09 17:00:00 14.8 4 Sudoeste 13 Sudoeste 0 -- -- 59
2020-01-09 16:00:00 15.2 5 Sudoeste 12 Sudoeste 0 -- -- 59
2020-01-09 15:00:00 15.4 5 Sur 11 Sur 0 -- -- 57
2020-01-09 14:00:00 17.2 2 Sur 9 Sudeste 0 -- -- 50
2020-01-09 13:00:00 16.8 2 Sudeste 6 Sur 0 -- -- 54
2020-01-09 12:00:00 15.2 3 Nordeste 8 Norte 0 -- -- 62
2020-01-09 11:00:00 14.1 6 Nordeste 10 Nordeste 0 -- -- 64
2020-01-09 10:00:00 12 0 Calma 6 Noroeste 0 -- -- 75
2020-01-09 09:00:00 9.7 3 Nordeste 9 Noroeste 0 -- -- 83
2020-01-09 08:00:00 9.3 3 Norte 6 Nordeste 0 -- -- 84
2020-01-09 07:00:00 10.1 0 Calma 11 Norte 0 -- -- 80
2020-01-09 06:00:00 8.7 4 Norte 9 Norte 0 -- -- 88
2020-01-09 05:00:00 7.8 3 Norte 5 Nordeste 0 -- -- 90
2020-01-09 04:00:00 8.2 3 Nordeste 6 Nordeste 0 -- -- 89
2020-01-09 03:00:00 8.1 3 Nordeste 6 Norte 0 -- -- 89
2020-01-09 02:00:00 8.5 0 Calma 5 Noroeste 0 -- -- 86
2020-01-09 01:00:00 9.1 0 Calma 6 Norte 0 -- -- 84
2020-01-09 00:00:00 9.9 0 Calma 9 Norte 0 -- -- 81
2020-01-08 23:00:00 10.7 4 Norte 8 Norte 0 -- -- 79
2020-01-08 22:00:00 11.2 4 Nordeste 11 Norte 0 -- -- 79
2020-01-08 21:00:00 11.2 4 Norte 9 Norte 0 -- -- 79
2020-01-08 20:00:00 12 3 Noroeste 9 Nordeste 0 -- -- 77
2020-01-08 19:00:00 13.2 3 Nordeste 14 Este 0 -- -- 71
2020-01-08 18:00:00 14.1 7 Nordeste 15 Este 0 -- -- 67
2020-01-08 17:00:00 14.8 6 Este 21 Este 0 -- -- 62
2020-01-08 16:00:00 15.9 11 Este 21 Este 0 -- -- 56
2020-01-08 15:00:00 16.5 6 Este 11 Nordeste 0 -- -- 54
2020-01-08 14:00:00 16.8 5 Sudoeste 10 Sudoeste 0 -- -- 52
2020-01-08 13:00:00 17.1 2 Sudoeste 7 Este 0 -- -- 47
2020-01-08 12:00:00 15.2 3 Sur 9 Sudeste 0 -- -- 49
2020-01-08 11:00:00 13.7 2 Nordeste 6 Este 0 -- -- 60
2020-01-08 10:00:00 11.3 3 Nordeste 7 Este 0 -- -- 70
2020-01-08 09:00:00 8.8 3 Norte 7 Noroeste 0 -- -- 76
2020-01-08 08:00:00 8.3 0 Calma -- -- -- -- -- 76
2020-01-08 07:00:00 -- -- -- -- -- -- -- -- --
2020-01-08 06:00:00 -- -- -- -- -- -- -- -- --
2020-01-08 05:00:00 -- -- -- -- -- -- -- -- --
2020-01-08 04:00:00 -- -- -- -- -- -- -- -- --
2020-01-08 03:00:00 -- -- -- -- -- -- -- -- --
2020-01-08 02:00:00 -- -- -- -- -- -- -- -- --
2020-01-08 01:00:00 -- -- -- -- -- -- -- -- --
2020-01-08 00:00:00 -- -- -- -- -- -- -- -- --
2020-01-07 23:00:00 -- -- -- -- -- -- -- -- --
2020-01-07 22:00:00 -- -- -- -- -- -- -- -- --
2020-01-07 21:00:00 -- -- -- -- -- -- -- -- --
2020-01-07 20:00:00 -- -- -- -- -- -- -- -- --
2020-01-07 19:00:00 -- -- -- -- -- -- -- -- --
2020-01-07 18:00:00 -- -- -- -- -- -- -- -- --
2020-01-07 17:00:00 -- -- -- -- -- -- -- -- --
2020-01-07 16:00:00 -- -- -- -- -- -- -- -- --
2020-01-07 15:00:00 -- -- -- -- -- -- -- -- --
2020-01-07 14:00:00 16.4 6 Sur 14 Sudoeste 0 -- -- 60
2020-01-07 13:00:00 16.4 8 Sur 15 Nordeste 0 -- -- 66
2020-01-07 12:00:00 14.9 2 Sur 12 Norte 0 -- -- 67
2020-01-07 11:00:00 15.8 5 Noroeste 15 Nordeste 0 -- -- 64
2020-01-07 10:00:00 14.8 5 Nordeste 10 Norte 0 -- -- 71
2020-01-07 09:00:00 11.3 0 Calma 13 Noroeste 0 -- -- 83
2020-01-07 08:00:00 11.8 6 Noroeste 15 Noroeste 0 -- -- 78
2020-01-07 07:00:00 10.6 7 Noroeste 14 Noroeste 0 -- -- 83
2020-01-07 06:00:00 10.5 2 Noroeste 4 Noroeste 0 -- -- 84
2020-01-07 05:00:00 11.7 0 Calma 5 Nordeste 0 -- -- 80
2020-01-07 04:00:00 11.7 0 Calma 5 Norte 0 -- -- 79
2020-01-07 03:00:00 11.7 2 Norte 10 Nordeste 0 -- -- 78
2020-01-07 02:00:00 11.8 4 Este 9 Este 0 -- -- 81
2020-01-07 01:00:00 13.2 3 Norte 14 Noroeste 0 -- -- 75
2020-01-07 00:00:00 12.2 5 Noroeste 10 Norte 0 -- -- 81
2020-01-06 23:00:00 10.7 0 Calma 7 Noroeste 0 -- -- 86
2020-01-06 22:00:00 10.5 2 Norte 7 Noroeste 0 -- -- 83
2020-01-06 21:00:00 11.4 0 Calma 12 Noroeste 0 -- -- 78
2020-01-06 20:00:00 12.6 7 Noroeste 16 Noroeste 0 -- -- 70
2020-01-06 19:00:00 12.7 9 Noroeste 15 Noroeste 0 -- -- 70
2020-01-06 18:00:00 13.5 6 Noroeste 11 Noroeste 0 -- -- 67
2020-01-06 17:00:00 14.5 6 Noroeste 15 Noroeste 0 -- -- 64
2020-01-06 16:00:00 14.7 4 Norte 14 Noroeste 0 -- -- 62
2020-01-06 15:00:00 14.6 0 Calma 5 Nordeste 0 -- -- 66
2020-01-06 14:00:00 14.2 0 Calma 6 Nordeste 0 -- -- 70
2020-01-06 13:00:00 14.2 2 Este 6 Este 0 -- -- 69
2020-01-06 12:00:00 12.9 3 Nordeste 6 Este 0 -- -- 71
2020-01-06 11:00:00 11.5 3 Nordeste 5 Norte 0 -- -- 75
2020-01-06 10:00:00 11 0 Calma 4 Nordeste 0 -- -- 81